createdAt,value
2023-05-10T00:01:36.582Z,422.25
2023-05-10T00:04:28.125Z,383.20
2023-05-10T00:07:18.554Z,387.08
2023-05-10T00:10:07.431Z,387.13
2023-05-10T00:12:55.572Z,402.80
2023-05-10T00:15:43.843Z,385.98
2023-05-10T00:18:31.824Z,403.85
2023-05-10T00:21:20.012Z,407.45
2023-05-10T00:24:09.391Z,389.13
2023-05-10T00:26:57.365Z,407.60
2023-05-10T00:29:45.785Z,415.67
2023-05-10T00:32:33.771Z,411.33
2023-05-10T00:35:22.759Z,417.38
2023-05-10T00:38:10.707Z,394.83
2023-05-10T00:41:00.251Z,421.17
2023-05-10T00:43:51.919Z,393.98
2023-05-10T00:46:40.165Z,383.67
2023-05-10T00:49:28.602Z,412.10
2023-05-10T00:52:16.582Z,393.42
2023-05-10T00:55:06.695Z,396.98
2023-05-10T00:57:56.179Z,398.67
2023-05-10T01:00:45.935Z,412.77
2023-05-10T01:03:34.332Z,400.67
2023-05-10T01:06:22.846Z,405.63
2023-05-10T01:09:12.574Z,387.58
2023-05-10T01:12:02.933Z,402.00
2023-05-10T01:14:52.970Z,405.98
2023-05-10T01:17:42.785Z,411.83
2023-05-10T01:20:38.360Z,408.67
2023-05-10T01:23:45.387Z,411.42
2023-05-10T01:27:18.114Z,396.92
2023-05-10T01:30:56.998Z,393.30
2023-05-10T01:33:53.217Z,378.00
2023-05-10T01:36:47.984Z,409.48
2023-05-10T01:39:46.332Z,391.98
2023-05-10T01:42:42.643Z,400.15
2023-05-10T01:45:35.646Z,397.08
2023-05-10T01:48:26.669Z,423.90
2023-05-10T01:51:21.843Z,418.90
2023-05-10T01:54:11.808Z,414.40
2023-05-10T01:57:04.415Z,407.63
2023-05-10T01:59:53.253Z,397.35
2023-05-10T02:02:44.213Z,403.75
2023-05-10T02:05:35.167Z,405.80
2023-05-10T02:08:25.858Z,413.42
2023-05-10T02:11:15.775Z,402.90
2023-05-10T02:14:04.674Z,404.05
2023-05-10T02:16:53.876Z,428.27
2023-05-10T02:19:44.082Z,422.60
2023-05-10T02:22:33.341Z,409.38
2023-05-10T02:25:24.254Z,425.30
2023-05-10T02:28:14.252Z,411.20
2023-05-10T02:31:02.989Z,403.67
2023-05-10T02:33:52.256Z,414.48
2023-05-10T02:36:41.457Z,381.55
2023-05-10T02:39:31.743Z,397.65
2023-05-10T02:42:24.461Z,414.60
2023-05-10T02:45:17.473Z,393.95
2023-05-10T02:48:06.208Z,396.20
2023-05-10T02:50:57.937Z,391.38
2023-05-10T02:53:48.194Z,392.08
2023-05-10T02:56:42.567Z,388.95
2023-05-10T02:59:33.773Z,397.15
2023-05-10T03:02:22.607Z,400.65
2023-05-10T03:05:11.039Z,377.95
2023-05-10T03:07:59.076Z,403.85
2023-05-10T03:10:57.486Z,420.35
2023-05-10T03:13:56.311Z,381.88
2023-05-10T03:16:48.965Z,406.25
2023-05-10T03:19:45.488Z,388.23
2023-05-10T03:22:39.003Z,391.33
2023-05-10T03:25:28.351Z,385.20
2023-05-10T03:28:17.517Z,387.88
2023-05-10T03:31:08.075Z,386.88
2023-05-10T03:33:57.901Z,394.70
2023-05-10T03:36:48.156Z,382.77
2023-05-10T03:39:36.665Z,392.35
2023-05-10T03:42:27.159Z,405.42
2023-05-10T03:45:15.295Z,406.42
2023-05-10T03:48:03.378Z,407.52
2023-05-10T03:50:53.295Z,398.05
2023-05-10T03:53:41.263Z,390.85
2023-05-10T03:56:29.628Z,370.92
2023-05-10T03:59:18.025Z,397.15
2023-05-10T04:02:06.045Z,396.27
2023-05-10T04:04:54.408Z,393.42
2023-05-10T04:07:45.232Z,400.23
2023-05-10T04:10:33.579Z,391.98
2023-05-10T04:13:21.649Z,377.80
2023-05-10T04:16:10.391Z,376.13
2023-05-10T04:18:58.363Z,399.58
2023-05-10T04:21:47.157Z,374.33
2023-05-10T04:24:36.520Z,395.73
2023-05-10T04:27:24.432Z,385.42
2023-05-10T04:30:13.312Z,379.67
2023-05-10T04:33:01.336Z,395.25
2023-05-10T04:35:49.534Z,366.83
2023-05-10T04:38:37.577Z,383.23
2023-05-10T04:41:27.286Z,386.35
2023-05-10T04:44:15.205Z,391.20
2023-05-10T04:47:04.153Z,385.67
2023-05-10T04:49:52.525Z,362.52
2023-05-10T04:52:40.446Z,379.80
2023-05-10T04:55:28.775Z,384.73
2023-05-10T04:58:18.092Z,381.42
2023-05-10T05:01:09.575Z,368.13
2023-05-10T05:03:57.725Z,361.77
2023-05-10T05:06:46.072Z,367.88
2023-05-10T05:09:34.242Z,376.55
2023-05-10T05:12:22.442Z,358.70
2023-05-10T05:15:12.776Z,377.40
2023-05-10T05:18:01.033Z,345.05
2023-05-10T05:20:49.293Z,356.90
2023-05-10T05:23:37.284Z,340.10
2023-05-10T05:26:25.715Z,361.48
2023-05-10T05:29:13.635Z,366.63
2023-05-10T05:32:03.384Z,372.73
2023-05-10T05:34:51.940Z,364.15
2023-05-10T05:37:39.916Z,347.17
2023-05-10T05:40:27.892Z,367.33
2023-05-10T05:43:16.186Z,359.40
2023-05-10T05:46:04.557Z,388.35
2023-05-10T05:48:53.851Z,390.65
2023-05-10T05:51:41.986Z,371.67
2023-05-10T05:54:30.463Z,373.80
2023-05-10T05:57:18.522Z,353.85
2023-05-10T06:00:08.135Z,366.35
2023-05-10T06:03:05.765Z,351.80
2023-05-10T06:05:55.026Z,372.50
2023-05-10T06:08:43.182Z,379.05
2023-05-10T06:11:33.096Z,374.00
2023-05-10T06:14:22.169Z,381.10
2023-05-10T06:17:10.365Z,366.65
2023-05-10T06:19:58.318Z,371.98
2023-05-10T06:22:47.799Z,365.23
2023-05-10T06:25:35.682Z,358.40
2023-05-10T06:28:23.956Z,373.08
2023-05-10T06:31:12.807Z,350.10
2023-05-10T06:34:00.988Z,374.77
2023-05-10T06:36:49.132Z,360.17
2023-05-10T06:39:38.735Z,367.95
2023-05-10T06:42:28.292Z,363.63
2023-05-10T06:45:17.068Z,362.15
2023-05-10T06:48:05.958Z,380.70
2023-05-10T06:50:54.004Z,382.73
2023-05-10T06:53:41.959Z,389.98
2023-05-10T06:56:31.217Z,371.23
2023-05-10T06:59:20.635Z,362.58
2023-05-10T07:02:08.951Z,361.30
2023-05-10T07:04:58.417Z,363.33
2023-05-10T07:07:48.687Z,340.73
2023-05-10T07:10:36.674Z,337.95
2023-05-10T07:13:26.267Z,360.50
2023-05-10T07:16:14.257Z,364.92
2023-05-10T07:19:03.450Z,371.92
2023-05-10T07:21:51.757Z,369.52
2023-05-10T07:24:40.009Z,359.02
2023-05-10T07:27:28.003Z,381.25
2023-05-10T07:30:17.380Z,370.30
2023-05-10T07:33:05.623Z,357.83
2023-05-10T07:35:53.540Z,357.90
2023-05-10T07:38:41.896Z,356.73
2023-05-10T07:41:29.832Z,371.98
2023-05-10T07:44:19.745Z,390.30
2023-05-10T07:47:09.072Z,377.17
2023-05-10T07:49:57.410Z,356.95
2023-05-10T07:52:45.638Z,367.42
2023-05-10T07:55:33.591Z,372.70
2023-05-10T07:58:22.031Z,392.88
2023-05-10T08:01:09.926Z,400.77
2023-05-10T08:04:01.187Z,402.75
2023-05-10T08:09:58.733Z,389.77
2023-05-10T08:12:47.213Z,394.63
2023-05-10T08:15:36.871Z,396.10
2023-05-10T08:18:24.878Z,396.10
2023-05-10T08:21:14.613Z,399.02
2023-05-10T08:24:03.231Z,385.27
2023-05-10T08:26:51.205Z,382.88
2023-05-10T08:29:49.639Z,383.42
2023-05-10T08:32:38.950Z,390.90
2023-05-10T08:35:27.325Z,425.02
2023-05-10T08:38:16.947Z,429.45
2023-05-10T08:41:06.248Z,400.67
2023-05-10T08:43:55.684Z,422.10
2023-05-10T08:46:48.556Z,390.40
2023-05-10T08:49:38.992Z,410.70
2023-05-10T08:52:28.438Z,408.80
2023-05-10T08:55:18.709Z,397.75
2023-05-10T08:58:07.215Z,407.38
2023-05-10T09:00:55.809Z,411.65
2023-05-10T09:03:44.525Z,387.63
2023-05-10T09:06:33.097Z,362.95
2023-05-10T09:09:22.383Z,399.83
2023-05-10T09:12:12.532Z,402.92
2023-05-10T09:17:51.321Z,417.27
2023-05-10T09:20:40.182Z,417.42
2023-05-10T09:23:33.045Z,409.40
2023-05-10T09:26:24.486Z,419.67
2023-05-10T09:29:15.995Z,426.75
2023-05-10T09:32:05.511Z,435.60
2023-05-10T09:34:53.671Z,395.75
2023-05-10T09:37:43.497Z,401.45
2023-05-10T09:40:32.680Z,401.15
2023-05-10T09:43:21.781Z,376.10
2023-05-10T09:46:12.612Z,390.15
2023-05-10T09:49:00.618Z,405.85
2023-05-10T09:51:48.995Z,408.67
2023-05-10T09:54:37.694Z,418.30
2023-05-10T09:57:26.845Z,442.75
2023-05-10T10:00:19.938Z,415.45
2023-05-10T10:03:15.071Z,406.63
2023-05-10T10:06:03.553Z,380.17
2023-05-10T10:08:52.594Z,403.00
2023-05-10T10:11:42.399Z,430.23
2023-05-10T10:14:30.770Z,413.25
2023-05-10T10:17:19.788Z,408.13
2023-05-10T10:20:12.227Z,391.83
2023-05-10T10:23:00.438Z,405.58
2023-05-10T10:25:50.214Z,385.63
2023-05-10T10:28:43.228Z,418.27
2023-05-10T10:31:40.039Z,419.88
2023-05-10T10:34:29.881Z,416.80
2023-05-10T10:37:19.762Z,424.45
2023-05-10T10:40:24.978Z,393.67
2023-05-10T10:43:26.621Z,385.45
2023-05-10T10:46:16.523Z,410.85
2023-05-10T10:49:11.911Z,397.67
2023-05-10T10:52:16.737Z,398.77
2023-05-10T10:55:09.109Z,393.63
2023-05-10T10:58:03.423Z,408.08
2023-05-10T11:00:51.713Z,405.65
2023-05-10T11:03:40.219Z,369.48
2023-05-10T11:06:32.874Z,397.98
2023-05-10T11:09:21.704Z,409.85
2023-05-10T11:12:11.779Z,414.08
2023-05-10T11:14:59.940Z,410.73
2023-05-10T11:17:53.193Z,395.52
2023-05-10T11:20:41.462Z,359.33
2023-05-10T11:23:33.703Z,338.52
2023-05-10T11:26:24.152Z,338.40
2023-05-10T11:29:15.100Z,362.10
2023-05-10T11:32:03.520Z,336.58
2023-05-10T11:34:51.427Z,345.05
2023-05-10T11:37:42.525Z,343.85
2023-05-10T11:40:30.525Z,355.00
2023-05-10T11:43:18.706Z,331.58
2023-05-10T11:46:09.207Z,346.67
2023-05-10T11:49:01.843Z,350.33
2023-05-10T11:51:49.795Z,343.42
2023-05-10T11:54:38.140Z,350.27
2023-05-10T11:57:29.221Z,347.58
2023-05-10T12:00:18.039Z,340.88
2023-05-10T12:03:08.255Z,343.92
2023-05-10T12:05:56.966Z,346.77
2023-05-10T12:08:47.625Z,348.08
2023-05-10T12:11:39.660Z,341.60
2023-05-10T12:14:29.380Z,355.50
2023-05-10T12:17:17.271Z,342.05
2023-05-10T12:20:23.627Z,345.40
2023-05-10T12:23:11.975Z,334.27
2023-05-10T12:26:04.186Z,321.65
2023-05-10T12:28:52.404Z,297.63
2023-05-10T12:31:51.463Z,301.85
2023-05-10T12:34:39.704Z,258.92
2023-05-10T12:37:31.153Z,275.45
2023-05-10T12:40:19.610Z,269.40
2023-05-10T12:43:07.534Z,277.50
2023-05-10T12:45:55.915Z,281.17
2023-05-10T12:48:45.672Z,302.48
2023-05-10T12:51:33.641Z,277.20
2023-05-10T12:54:22.984Z,305.33
2023-05-10T12:57:11.207Z,308.63
2023-05-10T12:59:59.253Z,282.63
2023-05-10T13:02:47.231Z,330.42
2023-05-10T13:05:35.407Z,309.83
2023-05-10T13:08:23.401Z,321.70
2023-05-10T13:11:13.040Z,303.58
2023-05-10T13:14:01.408Z,301.35
2023-05-10T13:16:49.417Z,311.48
2023-05-10T13:19:37.414Z,312.75
2023-05-10T13:22:36.274Z,271.88
2023-05-10T13:25:27.716Z,243.80
2023-05-10T13:28:16.981Z,263.27
2023-05-10T13:31:05.213Z,271.65
2023-05-10T13:33:53.156Z,256.42
2023-05-10T13:36:41.255Z,251.75
2023-05-10T13:39:31.930Z,235.68
2023-05-10T13:42:20.085Z,239.18
2023-05-10T13:45:10.701Z,258.98
2023-05-10T13:47:58.665Z,269.15
2023-05-10T13:50:47.276Z,257.17
2023-05-10T13:53:35.209Z,260.73
2023-05-10T13:56:23.324Z,260.38
2023-05-10T13:59:11.272Z,265.92
2023-05-10T14:02:01.069Z,261.45
2023-05-10T14:04:49.333Z,252.52
2023-05-10T14:07:37.220Z,256.95
2023-05-10T14:10:25.135Z,246.50
2023-05-10T14:13:13.089Z,257.80
2023-05-10T14:16:02.244Z,244.35
2023-05-10T14:18:51.552Z,256.20
2023-05-10T14:21:39.908Z,247.85
2023-05-10T14:24:27.831Z,241.55
2023-05-10T14:27:16.158Z,240.35
2023-05-10T14:30:04.588Z,237.43
2023-05-10T14:32:54.863Z,244.55
2023-05-10T14:35:44.172Z,233.65
2023-05-10T14:38:32.097Z,234.68
2023-05-10T14:41:20.450Z,240.10
2023-05-10T14:44:08.435Z,217.70
2023-05-10T14:46:56.844Z,237.93
2023-05-10T14:49:44.765Z,250.02
2023-05-10T14:52:34.447Z,251.00
2023-05-10T14:55:22.460Z,234.02
2023-05-10T14:58:10.603Z,254.90
2023-05-10T15:00:58.911Z,218.10
2023-05-10T15:03:47.241Z,242.10
2023-05-10T15:06:36.804Z,238.18
2023-05-10T15:09:26.113Z,231.07
2023-05-10T15:12:14.468Z,220.75
2023-05-10T15:15:03.025Z,206.95
2023-05-10T15:17:51.411Z,197.00
2023-05-10T15:20:39.388Z,218.77
2023-05-10T15:23:27.799Z,206.68
2023-05-10T15:26:17.322Z,204.40
2023-05-10T15:29:05.251Z,189.98
2023-05-10T15:31:53.720Z,176.07
2023-05-10T15:34:41.932Z,181.25
2023-05-10T15:37:30.040Z,185.40
2023-05-10T15:40:18.185Z,176.07
2023-05-10T15:43:07.917Z,178.52
2023-05-10T15:45:55.786Z,185.80
2023-05-10T15:48:43.959Z,177.98
2023-05-10T15:51:35.369Z,188.93
2023-05-10T15:54:24.493Z,184.32
2023-05-10T15:57:12.785Z,190.50
2023-05-10T16:00:02.327Z,178.95
2023-05-10T16:03:00.288Z,181.85
2023-05-10T16:05:48.427Z,177.25
2023-05-10T16:08:36.580Z,174.13
2023-05-10T16:11:24.566Z,184.38
2023-05-10T16:14:12.697Z,180.77
2023-05-10T16:17:03.132Z,182.30
2023-05-10T16:19:51.189Z,164.35
2023-05-10T16:22:39.415Z,158.88
2023-05-10T16:25:27.298Z,173.95
2023-05-10T16:28:15.379Z,175.40
2023-05-10T16:31:03.768Z,162.05
2023-05-10T16:33:53.164Z,146.77
2023-05-10T16:36:41.080Z,161.60
2023-05-10T16:39:29.238Z,172.15
2023-05-10T16:42:17.836Z,154.85
2023-05-10T16:45:09.012Z,160.52
2023-05-10T16:47:57.220Z,150.00
2023-05-10T16:50:46.743Z,172.25
2023-05-10T16:53:34.729Z,158.48
2023-05-10T16:56:23.280Z,171.52
2023-05-10T16:59:11.519Z,169.25
2023-05-10T17:01:59.521Z,161.18
2023-05-10T17:04:47.696Z,154.27
2023-05-10T17:07:37.107Z,155.90
2023-05-10T17:10:25.007Z,163.48
2023-05-10T17:13:13.386Z,167.77
2023-05-10T17:16:03.477Z,164.13
2023-05-10T17:18:51.961Z,179.63
2023-05-10T17:21:39.914Z,170.57
2023-05-10T17:24:29.753Z,169.27
2023-05-10T17:27:17.652Z,165.52
2023-05-10T17:30:06.995Z,185.00
2023-05-10T17:32:55.032Z,193.40
2023-05-10T17:35:46.538Z,214.13
2023-05-10T17:38:34.489Z,226.88
2023-05-10T17:41:24.828Z,227.32
2023-05-10T17:44:13.347Z,246.10
2023-05-10T17:47:02.263Z,272.30
2023-05-10T17:49:50.188Z,262.05
2023-05-10T17:52:38.636Z,284.63
2023-05-10T17:55:27.095Z,296.42
2023-05-10T17:58:16.649Z,290.23
2023-05-10T18:01:04.792Z,306.75
2023-05-10T18:03:53.393Z,309.10
2023-05-10T18:06:41.610Z,300.30
2023-05-10T18:09:30.501Z,326.85
2023-05-10T18:12:18.723Z,328.30
2023-05-10T18:15:09.567Z,333.40
2023-05-10T18:17:57.540Z,357.92
2023-05-10T18:20:46.806Z,352.02
2023-05-10T18:23:34.728Z,359.33
2023-05-10T18:26:23.021Z,347.50
2023-05-10T18:29:10.962Z,358.70
2023-05-10T18:32:00.588Z,366.38
2023-05-10T18:34:48.506Z,361.23
2023-05-10T18:37:38.557Z,383.10
2023-05-10T18:40:28.535Z,364.40
2023-05-10T18:43:16.794Z,373.33
2023-05-10T18:46:04.890Z,364.33
2023-05-10T18:48:55.548Z,375.40
2023-05-10T18:51:43.496Z,373.73
2023-05-10T18:54:31.721Z,345.30
2023-05-10T18:57:21.024Z,354.58
2023-05-10T19:00:11.480Z,352.05
2023-05-10T19:02:59.477Z,370.85
2023-05-10T19:05:49.417Z,369.30
2023-05-10T19:08:37.345Z,389.88
2023-05-10T19:11:26.199Z,373.35
2023-05-10T19:14:14.216Z,364.05
2023-05-10T19:17:02.492Z,403.67
2023-05-10T19:19:50.620Z,403.88
2023-05-10T19:25:30.756Z,395.17
2023-05-10T19:28:19.085Z,381.65
2023-05-10T19:31:08.762Z,400.42
2023-05-10T19:33:59.985Z,364.25
2023-05-10T19:36:48.635Z,394.95
2023-05-10T19:39:37.954Z,357.23
2023-05-10T19:42:25.954Z,359.73
2023-05-10T19:45:15.954Z,379.95
2023-05-10T19:48:04.513Z,354.25
2023-05-10T19:50:53.450Z,343.95
2023-05-10T19:53:44.579Z,338.17
2023-05-10T19:56:34.259Z,344.00
2023-05-10T19:59:22.254Z,348.70
2023-05-10T20:02:10.628Z,354.38
2023-05-10T20:04:58.668Z,343.98
2023-05-10T20:07:46.914Z,340.92
2023-05-10T20:10:34.798Z,359.52
2023-05-10T20:13:24.724Z,340.75
2023-05-10T20:16:12.677Z,343.55
2023-05-10T20:19:01.401Z,359.98
2023-05-10T20:21:49.349Z,351.90
2023-05-10T20:24:37.675Z,356.75
2023-05-10T20:27:25.666Z,345.67
2023-05-10T20:30:15.928Z,319.63
2023-05-10T20:33:04.207Z,342.92
2023-05-10T20:35:52.404Z,336.95
2023-05-10T20:38:40.324Z,342.77
2023-05-10T20:41:28.488Z,340.77
2023-05-10T20:44:16.436Z,343.92
2023-05-10T20:47:06.787Z,332.67
2023-05-10T20:49:54.755Z,345.40
2023-05-10T20:52:42.963Z,351.67
2023-05-10T20:55:30.907Z,350.35
2023-05-10T20:58:19.125Z,338.85
2023-05-10T21:01:07.050Z,331.77
2023-05-10T21:03:56.347Z,338.17
2023-05-10T21:06:44.608Z,361.65
2023-05-10T21:09:32.895Z,366.55
2023-05-10T21:12:20.842Z,377.63
2023-05-10T21:15:10.404Z,367.05
2023-05-10T21:17:59.762Z,364.83
2023-05-10T21:20:49.618Z,385.77
2023-05-10T21:23:37.537Z,377.58
2023-05-10T21:26:26.117Z,393.40
2023-05-10T21:29:14.137Z,363.23
2023-05-10T21:32:02.610Z,361.67
2023-05-10T21:34:51.083Z,399.00
2023-05-10T21:37:40.682Z,391.48
2023-05-10T21:40:29.629Z,366.10
2023-05-10T21:43:17.792Z,393.55
2023-05-10T21:46:05.907Z,401.27
2023-05-10T21:48:54.131Z,372.65
2023-05-10T21:51:42.049Z,408.73
2023-05-10T21:54:31.689Z,380.08
2023-05-10T21:57:21.366Z,370.60
2023-05-10T22:00:11.371Z,396.80
2023-05-10T22:03:00.714Z,388.50
2023-05-10T22:05:49.099Z,386.13
2023-05-10T22:08:37.032Z,385.45
2023-05-10T22:11:26.773Z,409.25
2023-05-10T22:14:14.739Z,403.92
2023-05-10T22:17:02.693Z,410.67
2023-05-10T22:19:50.641Z,403.83
2023-05-10T22:22:38.720Z,380.02
2023-05-10T22:25:27.030Z,393.15
2023-05-10T22:28:16.481Z,384.25
2023-05-10T22:31:04.684Z,394.23
2023-05-10T22:33:53.069Z,379.88
2023-05-10T22:36:41.013Z,388.90
2023-05-10T22:39:29.233Z,381.80
2023-05-10T22:42:17.467Z,381.27
2023-05-10T22:45:08.813Z,386.38
2023-05-10T22:47:56.791Z,363.00
2023-05-10T22:50:45.010Z,389.23
2023-05-10T22:53:32.900Z,393.05
2023-05-10T22:56:21.949Z,369.63
2023-05-10T22:59:10.071Z,386.45
2023-05-10T23:02:00.220Z,363.92
2023-05-10T23:04:48.233Z,367.58
2023-05-10T23:07:36.904Z,356.05
2023-05-10T23:10:25.118Z,379.05
2023-05-10T23:13:13.319Z,345.52
2023-05-10T23:16:05.998Z,348.08
2023-05-10T23:18:55.561Z,367.10
2023-05-10T23:21:43.533Z,350.05
2023-05-10T23:24:31.451Z,346.30
2023-05-10T23:27:19.333Z,362.60
2023-05-10T23:30:08.872Z,347.08
2023-05-10T23:32:56.831Z,336.95
2023-05-10T23:35:46.304Z,373.65
2023-05-10T23:38:34.244Z,330.38
2023-05-10T23:41:22.789Z,338.80
2023-05-10T23:44:10.832Z,330.60
2023-05-10T23:46:58.744Z,351.30
2023-05-10T23:49:46.644Z,364.13
2023-05-10T23:52:36.379Z,333.27
2023-05-10T23:55:24.262Z,334.10
2023-05-10T23:58:12.554Z,336.52
